| time (UTC) | temp F | wind direction | speed MPH | gust MPH | rain 1hr in | rain 24hr in | rain mn in | humidity % | barometer mb |
| 20260903053500 | 53 | 68 | 2.0 | 4.0 | 0.00 | 0.00 | 0.08 | 93 | 1006.7 |
| 20260903052609 | 53 | 23 | 2.0 | 6.0 | 0.07 | 0.08 | 0.08 | 93 | 1005.9 |
| 20260903052059 | 53 | 90 | 2.0 | 6.0 | 0.07 | 0.08 | 0.08 | 93 | 1006.1 |
| 20260903051548 | 53 | 68 | 2.0 | 6.0 | 0.07 | 0.08 | 0.08 | 93 | 1006.3 |
| 20260903051038 | 53 | 45 | 2.0 | 6.0 | 0.07 | 0.08 | 0.08 | 93 | 1005.8 |
| 20260903050528 | 53 | 68 | 1.0 | 4.0 | 0.07 | 0.07 | 0.07 | 92 | 1005.5 |
| 20260903050022 | 53 | 293 | 2.0 | 6.0 | 0.07 | 0.07 | 0.07 | 92 | 1006.2 |
| 20260903045508 | 53 | 23 | 2.0 | 7.0 | 0.07 | 0.07 | 0.07 | 91 | 1006.0 |
| 20260903044958 | 54 | 270 | 1.0 | 7.0 | 0.06 | 0.06 | 0.06 | 90 | 1006.0 |
| 20260903044449 | 54 | 248 | 2.0 | 7.0 | 0.05 | 0.05 | 0.05 | 89 | 1006.3 |
| 20260903043938 | 55 | 45 | 2.0 | 9.0 | 0.04 | 0.04 | 0.04 | 87 | 1006.1 |
| 20260903043427 | 55 | 23 | 2.0 | 11.0 | 0.01 | 0.01 | 0.01 | 85 | 1006.7 |
| 20260903042917 | 56 | 293 | 5.0 | 11.0 | 0.01 | 0.01 | 0.01 | 83 | 1006.9 |
| 20260903041347 | 58 | 338 | 2.0 | 15.0 | 0.01 | 0.01 | 0.01 | 76 | 1007.1 |
| 20260903040837 | 58 | 0 | 4.0 | 15.0 | 0.00 | 0.00 | 0.00 | 74 | 1006.9 |
| 20260903040326 | 59 | 0 | 3.0 | 9.0 | 0.00 | 0.00 | 0.00 | 73 | 1006.8 |
| 20260903035817 | 59 | 338 | 4.0 | 9.0 | 0.00 | 0.00 | 0.00 | 74 | 1006.7 |
| 20260903035306 | 59 | 68 | 2.0 | 8.0 | 0.00 | 0.00 | 0.00 | 74 | 1007.0 |
| 20260903034756 | 59 | 45 | 2.0 | 8.0 | 0.00 | 0.00 | 0.00 | 75 | 1006.9 |
| 20260903034246 | 59 | 158 | 4.0 | 8.0 | 0.00 | 0.00 | 0.00 | 74 | 1006.6 |
| 20260903033736 | 59 | 90 | 3.0 | 7.0 | 0.00 | 0.00 | 0.00 | 75 | 1006.3 |
| 20260903033226 | 59 | 0 | 2.0 | 8.0 | 0.00 | 0.00 | 0.00 | 75 | 1006.4 |
| 20260903032716 | 59 | 90 | 2.0 | 8.0 | 0.00 | 0.00 | 0.00 | 77 | 1006.2 |
| 20260903032205 | 59 | 45 | 2.0 | 4.0 | 0.00 | 0.00 | 0.00 | 80 | 1006.2 |
| 20260903031656 | 59 | 68 | 1.0 | 4.0 | 0.00 | 0.00 | 0.00 | 83 | 1006.1 |
| 20260903031145 | 59 | 68 | 2.0 | 6.0 | 0.00 | 0.00 | 0.00 | 83 | 1006.0 |
| 20260903030125 | 59 | 68 | 2.0 | 7.0 | 0.00 | 0.00 | 0.00 | 86 | 1006.2 |
| 20260903025614 | 59 | 45 | 1.0 | 7.0 | 0.00 | 0.00 | 0.08 | 87 | 1006.4 |
| 20260903025105 | 58 | 45 | 2.0 | 7.0 | 0.00 | 0.00 | 0.08 | 88 | 1006.6 |
| 20260903024559 | 58 | 90 | 2.0 | 6.0 | 0.00 | 0.00 | 0.08 | 91 | 1006.5 |
| 20260903024046 | 58 | 23 | 2.0 | 4.0 | 0.00 | 0.00 | 0.08 | 93 | 1006.8 |
| 20260903023014 | 58 | 45 | 1.0 | 4.0 | 0.00 | 0.08 | 0.08 | 94 | 1006.4 |
| 20260903022505 | 58 | 45 | 2.0 | 6.0 | 0.00 | 0.08 | 0.08 | 95 | 1006.6 |
| 20260903021954 | 58 | 68 | 0.0 | 7.0 | 0.00 | 0.08 | 0.08 | 95 | 1006.4 |
| 20260903021444 | 58 | 45 | 2.0 | 7.0 | 0.00 | 0.08 | 0.08 | 96 | 1006.5 |
| 20260903020935 | 58 | 45 | 2.0 | 4.0 | 0.00 | 0.08 | 0.08 | 96 | 1006.6 |
| 20260903020424 | 57 | 45 | 2.0 | 4.0 | 0.00 | 0.08 | 0.08 | 96 | 1006.7 |
| 20260903015917 | 57 | 45 | 2.0 | 4.0 | 0.00 | 0.08 | 0.08 | 96 | 1006.9 |
| 20260903015404 | 56 | 45 | 1.0 | 2.0 | 0.00 | 0.08 | 0.08 | 96 | 1006.6 |
| 20260903014854 | 56 | 0 | 0.0 | 2.0 | 0.00 | 0.08 | 0.08 | 96 | 1006.6 |
| 20260903014343 | 56 | 68 | 0.0 | 2.0 | 0.00 | 0.08 | 0.08 | 96 | 1006.6 |
| 20260903013833 | 56 | 68 | 0.0 | 0.0 | 0.00 | 0.08 | 0.08 | 96 | 1006.8 |
| 20260903013328 | 56 | 23 | 0.0 | 0.0 | 0.00 | 0.08 | 0.08 | 95 | 1006.9 |
| 20260903012813 | 56 | 0 | 0.0 | 0.0 | 0.00 | 0.08 | 0.08 | 95 | 1006.5 |
| 20260903012306 | 55 | 45 | 0.0 | 0.0 | 0.00 | 0.08 | 0.08 | 95 | 1006.5 |
| 20260903011242 | 55 | 68 | 0.0 | 2.0 | 0.00 | 0.08 | 0.08 | 95 | 1006.0 |
| 20260903010732 | 56 | 68 | 0.0 | 2.0 | 0.00 | 0.08 | 0.08 | 95 | 1005.9 |
| 20260903010223 | 56 | 135 | 0.0 | 0.0 | 0.00 | 0.08 | 0.08 | 95 | 1005.6 |
| 20260903005712 | 56 | 113 | 0.0 | 0.0 | 0.00 | 0.08 | 0.08 | 95 | 1006.2 |
| 20260903005202 | 56 | 113 | 0.0 | 0.0 | 0.01 | 0.08 | 0.08 | 95 | 1006.3 |
| 20260903004652 | 56 | 113 | 0.0 | 0.0 | 0.06 | 0.08 | 0.08 | 95 | 1006.5 |
| 20260903004142 | 56 | 113 | 0.0 | 0.0 | 0.08 | 0.08 | 0.08 | 94 | 1006.2 |
| 20260903003632 | 56 | 113 | 0.0 | 0.0 | 0.08 | 0.08 | 0.08 | 94 | 1006.4 |
| 20260903002611 | 56 | 113 | 0.0 | 0.0 | 0.08 | 0.08 | 0.08 | 94 | 1006.4 |
| 20260903002101 | 56 | 68 | 0.0 | 2.0 | 0.08 | 0.08 | 0.08 | 94 | 1006.4 |
| 20260903001551 | 56 | 68 | 0.0 | 2.0 | 0.08 | 0.08 | 0.08 | 94 | 1006.5 |
| 20260903001042 | 56 | 68 | 0.0 | 0.0 | 0.08 | 0.08 | 0.08 | 93 | 1006.7 |
| 20260903000532 | 56 | 68 | 0.0 | 0.0 | 0.08 | 0.08 | 0.08 | 93 | 1006.4 |
| 20260903000021 | 56 | 68 | 0.0 | 2.0 | 0.08 | 0.08 | 0.08 | 93 | 1006.3 |
| 20260902235511 | 56 | 68 | 0.0 | 2.0 | 0.08 | 0.08 | 0.08 | 93 | 1006.4 |
| 20260902235000 | 56 | 45 | 0.0 | 2.0 | 0.06 | 0.06 | 0.06 | 93 | 1006.4 |
| 20260902233940 | 56 | 23 | 0.0 | 2.0 | 0.00 | 0.00 | 0.00 | 94 | 1006.4 |
| 20260902233435 | 56 | 0 | 0.0 | 2.0 | 0.00 | 0.00 | 0.00 | 94 | 1006.5 |
| 20260902232919 | 56 | 158 | 0.0 | 9.0 | 0.00 | 0.00 | 0.00 | 94 | 1006.7 |
| 20260902231900 | 56 | 203 | 2.0 | 4.0 | 0.00 | 0.00 | 0.00 | 95 | 1006.3 |
| 20260902231349 | 56 | 45 | 1.0 | 7.0 | 0.00 | 0.00 | 0.00 | 96 | 1006.6 |
| 20260902230329 | 55 | 45 | 1.0 | 6.0 | 0.00 | 0.00 | 0.00 | 95 | 1005.3 |
| 20260902225818 | 55 | 293 | 1.0 | 6.0 | 0.00 | 0.00 | 0.00 | 95 | 1005.3 |
| 20260902225308 | 55 | 225 | 1.0 | 4.0 | 0.00 | 0.00 | 0.00 | 95 | 1005.2 |
| 20260902224759 | 55 | 68 | 2.0 | 4.0 | 0.00 | 0.00 | 0.00 | 95 | 1005.7 |
| 20260902224248 | 56 | 0 | 2.0 | 4.0 | 0.00 | 0.00 | 0.00 | 95 | 1005.5 |
| 20260902223739 | 56 | 68 | 2.0 | 4.0 | 0.00 | 0.00 | 0.00 | 95 | 1005.5 |
| 20260902223228 | 56 | 248 | 1.0 | 4.0 | 0.00 | 0.00 | 0.00 | 95 | 1005.8 |
| 20260902222718 | 55 | 225 | 2.0 | 4.0 | 0.00 | 0.00 | 0.00 | 95 | 1005.6 |
| 20260902222210 | 55 | 68 | 0.0 | 4.0 | 0.00 | 0.00 | 0.00 | 95 | 1005.7 |
| 20260902221659 | 55 | 68 | 1.0 | 2.0 | 0.00 | 0.00 | 0.00 | 95 | 1006.1 |
| 20260902221123 | 54 | 338 | 1.0 | 4.0 | 0.00 | 0.00 | 0.00 | 95 | 1006.1 |
| 20260902220617 | 54 | 180 | 1.0 | 2.0 | 0.00 | 0.00 | 0.00 | 95 | 1006.1 |
| 20260902220107 | 54 | 270 | 0.0 | 2.0 | 0.00 | 0.00 | 0.00 | 95 | 1006.1 |
| 20260902215046 | 54 | 270 | 1.0 | 4.0 | 0.00 | 0.00 | 0.00 | 94 | 1006.2 |
| 20260902214536 | 54 | 293 | 0.0 | 4.0 | 0.00 | 0.00 | 0.00 | 94 | 1006.2 |
| 20260902214026 | 55 | 270 | 1.0 | 4.0 | 0.00 | 0.00 | 0.00 | 94 | 1006.5 |
| 20260902213006 | 55 | 180 | 1.0 | 4.0 | 0.00 | 0.00 | 0.00 | 93 | 1007.1 |
| 20260902212455 | 55 | 113 | 0.0 | 2.0 | 0.00 | 0.00 | 0.00 | 93 | 1007.3 |
| 20260902211945 | 55 | 248 | 0.0 | 2.0 | 0.00 | 0.00 | 0.00 | 93 | 1007.2 |
| 20260902210925 | 55 | 338 | 0.0 | 2.0 | 0.00 | 0.00 | 0.00 | 92 | 1007.1 |
| 20260902210415 | 55 | 113 | 0.0 | 2.0 | 0.00 | 0.00 | 0.00 | 92 | 1007.3 |
| 20260902205905 | 55 | 248 | 0.0 | 2.0 | 0.00 | 0.00 | 0.00 | 92 | 1007.2 |
| 20260902204845 | 56 | 293 | 0.0 | 2.0 | 0.00 | 0.00 | 0.00 | 91 | 1007.1 |
| 20260902204336 | 56 | 315 | 0.0 | 4.0 | 0.00 | 0.00 | 0.00 | 91 | 1007.2 |
| 20260902203824 | 56 | 248 | 0.0 | 4.0 | 0.00 | 0.00 | 0.00 | 91 | 1007.2 |
| 20260902203314 | 57 | 135 | 1.0 | 2.0 | 0.00 | 0.00 | 0.00 | 90 | 1007.5 |
| 20260902202805 | 57 | 248 | 0.0 | 2.0 | 0.00 | 0.00 | 0.00 | 90 | 1007.5 |
| 20260902202258 | 57 | 113 | 1.0 | 2.0 | 0.00 | 0.00 | 0.00 | 89 | 1007.6 |
| 20260902201744 | 58 | 158 | 0.0 | 2.0 | 0.00 | 0.00 | 0.00 | 89 | 1007.5 |
| 20260902201233 | 58 | 270 | 0.0 | 2.0 | 0.00 | 0.00 | 0.00 | 88 | 1007.7 |
| 20260902200723 | 59 | 293 | 0.0 | 4.0 | 0.00 | 0.00 | 0.00 | 88 | 1007.3 |
| 20260902200214 | 59 | 248 | 0.0 | 4.0 | 0.00 | 0.00 | 0.00 | 88 | 1007.5 |
| 20260902195704 | 59 | 45 | 2.0 | 4.0 | 0.00 | 0.00 | 0.00 | 88 | 1007.4 |
| 20260902194643 | 58 | 113 | 2.0 | 6.0 | 0.00 | 0.00 | 0.00 | 88 | 1007.4 |
| 20260902194133 | 58 | 45 | 2.0 | 6.0 | 0.00 | 0.00 | 0.00 | 88 | 1007.4 |
| 20260902193623 | 58 | 23 | 2.0 | 7.0 | 0.00 | 0.00 | 0.00 | 88 | 1007.5 |
| 20260902193113 | 58 | 68 | 2.0 | 7.0 | 0.00 | 0.00 | 0.00 | 88 | 1007.2 |
| 20260902192053 | 58 | 45 | 3.0 | 6.0 | 0.00 | 0.00 | 0.00 | 89 | 1007.7 |
| 20260902191032 | 57 | 45 | 2.0 | 6.0 | 0.00 | 0.00 | 0.00 | 90 | 1007.7 |
| 20260902190522 | 57 | 113 | 2.0 | 6.0 | 0.00 | 0.00 | 0.00 | 91 | 1007.6 |
| 20260902190012 | 57 | 113 | 2.0 | 6.0 | 0.00 | 0.00 | 0.00 | 91 | 1007.7 |
| 20260902185502 | 56 | 135 | 2.0 | 6.0 | 0.00 | 0.00 | 0.00 | 91 | 1007.8 |
| 20260902184951 | 56 | 338 | 2.0 | 7.0 | 0.00 | 0.00 | 0.00 | 90 | 1008.0 |
| 20260902183932 | 57 | 90 | 2.0 | 11.0 | 0.00 | 0.00 | 0.00 | 89 | 1007.7 |
| 20260902183421 | 57 | 90 | 2.0 | 6.0 | 0.00 | 0.00 | 0.00 | 89 | 1007.7 |
| 20260902182912 | 58 | 68 | 2.0 | 6.0 | 0.00 | 0.00 | 0.00 | 89 | 1007.8 |
| 20260902182401 | 58 | 158 | 2.0 | 7.0 | 0.00 | 0.00 | 0.00 | 88 | 1007.8 |
| 20260902181851 | 58 | 45 | 4.0 | 9.0 | 0.00 | 0.00 | 0.00 | 88 | 1007.9 |
| 20260902180831 | 59 | 68 | 4.0 | 9.0 | 0.00 | 0.00 | 0.00 | 88 | 1008.2 |
| 20260902180320 | 58 | 90 | 3.0 | 9.0 | 0.00 | 0.00 | 0.00 | 89 | 1008.3 |
| 20260902175810 | 58 | 45 | 3.0 | 9.0 | 0.00 | 0.00 | 0.00 | 89 | 1008.4 |
| 20260902175301 | 58 | 45 | 3.0 | 9.0 | 0.00 | 0.00 | 0.00 | 89 | 1008.4 |
| 20260902174749 | 58 | 68 | 4.0 | 9.0 | 0.00 | 0.00 | 0.00 | 88 | 1008.8 |
| 20260902174240 | 59 | 113 | 3.0 | 7.0 | 0.00 | 0.00 | 0.00 | 87 | 1008.8 |
| 20260902173730 | 59 | 68 | 3.0 | 9.0 | 0.00 | 0.00 | 0.00 | 87 | 1008.5 |
| 20260902172709 | 59 | 23 | 4.0 | 8.0 | 0.00 | 0.00 | 0.00 | 86 | 1008.9 |
| 20260902172159 | 59 | 135 | 3.0 | 7.0 | 0.00 | 0.00 | 0.00 | 86 | 1009.1 |
| 20260902171649 | 59 | 158 | 4.0 | 8.0 | 0.00 | 0.00 | 0.00 | 86 | 1009.2 |
| 20260902171138 | 58 | 270 | 2.0 | 11.0 | 0.00 | 0.00 | 0.00 | 87 | 1009.5 |
| 20260902170628 | 58 | 113 | 4.0 | 11.0 | 0.00 | 0.00 | 0.00 | 87 | 1009.4 |
| 20260902170119 | 58 | 135 | 3.0 | 9.0 | 0.00 | 0.00 | 0.00 | 88 | 1009.7 |
| 20260902165608 | 59 | 90 | 4.0 | 8.0 | 0.00 | 0.00 | 0.00 | 87 | 1010.4 |
| 20260902165058 | 59 | 68 | 2.0 | 8.0 | 0.00 | 0.00 | 0.00 | 86 | 1010.4 |
| 20260902164043 | 59 | 315 | 1.0 | 6.0 | 0.00 | 0.00 | 0.00 | 86 | 1010.9 |
| 20260902163018 | 59 | 68 | 4.0 | 11.0 | 0.00 | 0.00 | 0.00 | 86 | 1010.8 |
| 20260902161447 | 58 | 45 | 2.0 | 9.0 | 0.00 | 0.00 | 0.00 | 86 | 1011.3 |
| 20260902160937 | 58 | 68 | 2.0 | 9.0 | 0.00 | 0.00 | 0.00 | 86 | 1011.7 |
| 20260902160427 | 59 | 45 | 3.0 | 9.0 | 0.00 | 0.00 | 0.00 | 85 | 1011.6 |
| 20260902155916 | 58 | 113 | 2.0 | 9.0 | 0.00 | 0.00 | 0.00 | 85 | 1011.8 |
| 20260902155407 | 58 | 338 | 3.0 | 8.0 | 0.00 | 0.00 | 0.00 | 84 | 1011.7 |
| 20260902154856 | 59 | 45 | 4.0 | 9.0 | 0.00 | 0.00 | 0.00 | 83 | 1011.3 |
| 20260902154345 | 58 | 68 | 4.0 | 11.0 | 0.00 | 0.00 | 0.00 | 84 | 1011.5 |
| 20260902153836 | 58 | 68 | 4.0 | 11.0 | 0.00 | 0.00 | 0.00 | 83 | 1012.0 |
| 20260902152816 | 58 | 113 | 2.0 | 11.0 | 0.00 | 0.00 | 0.00 | 82 | 1011.9 |
| 20260902152308 | 58 | 90 | 6.0 | 11.0 | 0.00 | 0.00 | 0.00 | 81 | 1011.9 |
| 20260902151756 | 58 | 135 | 2.0 | 8.0 | 0.00 | 0.00 | 0.00 | 81 | 1012.0 |
| 20260902151245 | 57 | 158 | 2.0 | 8.0 | 0.00 | 0.00 | 0.00 | 83 | 1011.7 |
| 20260902150735 | 57 | 338 | 3.0 | 9.0 | 0.00 | 0.00 | 0.00 | 84 | 1012.0 |
| 20260902150225 | 56 | 248 | 4.0 | 9.0 | 0.00 | 0.00 | 0.00 | 84 | 1012.1 |
| 20260902145716 | 56 | 45 | 4.0 | 8.0 | 0.00 | 0.00 | 0.00 | 84 | 1012.8 |
| 20260902144145 | 56 | 90 | 3.0 | 8.0 | 0.00 | 0.00 | 0.00 | 86 | 1013.6 |
| 20260902143634 | 56 | 203 | 3.0 | 8.0 | 0.00 | 0.00 | 0.00 | 86 | 1013.8 |
| 20260902143124 | 56 | 90 | 4.0 | 8.0 | 0.00 | 0.00 | 0.00 | 86 | 1014.2 |
| 20260902142105 | 56 | 90 | 4.0 | 7.0 | 0.00 | 0.00 | 0.00 | 86 | 1013.9 |
| 20260902141554 | 56 | 90 | 2.0 | 7.0 | 0.00 | 0.00 | 0.00 | 87 | 1014.0 |
| 20260902141044 | 55 | 45 | 2.0 | 7.0 | 0.00 | 0.00 | 0.00 | 88 | 1013.9 |
| 20260902140533 | 55 | 68 | 2.0 | 7.0 | 0.00 | 0.00 | 0.00 | 89 | 1013.9 |
| 20260902140023 | 55 | 45 | 2.0 | 7.0 | 0.00 | 0.00 | 0.00 | 89 | 1014.2 |
| 20260902135514 | 55 | 68 | 2.0 | 8.0 | 0.00 | 0.00 | 0.00 | 90 | 1014.1 |
| 20260902135004 | 54 | 68 | 3.0 | 8.0 | 0.00 | 0.00 | 0.00 | 91 | 1014.5 |
| 20260902134453 | 54 | 68 | 2.0 | 8.0 | 0.00 | 0.00 | 0.00 | 92 | 1014.4 |
| 20260902133943 | 54 | 113 | 1.0 | 4.0 | 0.00 | 0.00 | 0.00 | 92 | 1014.5 |
| 20260902133432 | 54 | 68 | 1.0 | 7.0 | 0.00 | 0.00 | 0.00 | 92 | 1014.3 |
| 20260902132923 | 54 | 90 | 1.0 | 7.0 | 0.00 | 0.00 | 0.00 | 92 | 1014.3 |
| 20260902132412 | 54 | 90 | 2.0 | 8.0 | 0.00 | 0.00 | 0.00 | 93 | 1014.4 |
| 20260902131902 | 54 | 225 | 2.0 | 8.0 | 0.00 | 0.00 | 0.00 | 93 | 1014.6 |
| 20260902131352 | 54 | 113 | 2.0 | 7.0 | 0.00 | 0.00 | 0.00 | 94 | 1014.9 |
| 20260902130842 | 53 | 135 | 2.0 | 7.0 | 0.00 | 0.00 | 0.00 | 94 | 1014.9 |
| 20260902130331 | 53 | 45 | 2.0 | 7.0 | 0.00 | 0.00 | 0.00 | 94 | 1015.1 |
| 20260902125828 | 53 | 158 | 3.0 | 7.0 | 0.00 | 0.00 | 0.00 | 95 | 1015.4 |
| 20260902125312 | 53 | 0 | 3.0 | 4.0 | 0.00 | 0.00 | 0.00 | 95 | 1015.3 |
| 20260902124802 | 53 | 270 | 2.0 | 6.0 | 0.00 | 0.00 | 0.00 | 95 | 1015.4 |
| 20260902124251 | 53 | 45 | 3.0 | 9.0 | 0.00 | 0.00 | 0.00 | 96 | 1015.4 |
| 20260902123741 | 53 | 90 | 2.0 | 9.0 | 0.00 | 0.00 | 0.00 | 96 | 1015.6 |
| 20260902123230 | 53 | 68 | 4.0 | 9.0 | 0.00 | 0.00 | 0.00 | 96 | 1015.6 |
| 20260902122721 | 53 | 45 | 3.0 | 9.0 | 0.00 | 0.00 | 0.00 | 96 | 1015.3 |
| 20260902122211 | 53 | 90 | 2.0 | 8.0 | 0.00 | 0.00 | 0.00 | 96 | 1015.5 |
| 20260902121702 | 52 | 225 | 2.0 | 4.0 | 0.00 | 0.00 | 0.00 | 97 | 1015.6 |
| 20260902121155 | 52 | 45 | 2.0 | 7.0 | 0.00 | 0.00 | 0.00 | 97 | 1015.6 |
| 20260902120640 | 52 | 45 | 2.0 | 7.0 | 0.00 | 0.00 | 0.00 | 97 | 1015.8 |
| 20260902120130 | 52 | 68 | 3.0 | 4.0 | 0.00 | 0.00 | 0.00 | 98 | 1015.8 |
| 20260902115109 | 52 | 45 | 2.0 | 4.0 | 0.00 | 0.00 | 0.00 | 98 | 1015.7 |
| 20260902114600 | 51 | 45 | 2.0 | 6.0 | 0.00 | 0.00 | 0.00 | 98 | 1015.8 |
| 20260902114050 | 51 | 68 | 3.0 | 6.0 | 0.00 | 0.00 | 0.00 | 99 | 1015.8 |
| 20260902113540 | 51 | 113 | 3.0 | 6.0 | 0.00 | 0.00 | 0.00 | 99 | 1015.7 |
| 20260902112520 | 51 | 113 | 2.0 | 7.0 | 0.00 | 0.00 | 0.00 | 99 | 1015.7 |
| 20260902112008 | 51 | 203 | 1.0 | 4.0 | 0.00 | 0.00 | 0.00 | 99 | 1015.4 |
| 20260902111500 | 50 | 158 | 2.0 | 4.0 | 0.00 | 0.00 | 0.00 | 99 | 1015.5 |
| 20260902110948 | 50 | 113 | 2.0 | 6.0 | 0.00 | 0.00 | 0.00 | 99 | 1015.5 |
| 20260902110438 | 50 | 225 | 0.0 | 6.0 | 0.00 | 0.00 | 0.00 | 99 | 1015.4 |
| 20260902105418 | 50 | 45 | 1.0 | 6.0 | 0.00 | 0.00 | 0.00 | 99 | 1015.8 |
| 20260902104908 | 50 | 45 | 2.0 | 4.0 | 0.00 | 0.00 | 0.00 | 99 | 1015.7 |
| 20260902104358 | 50 | 338 | 1.0 | 4.0 | 0.00 | 0.00 | 0.00 | 99 | 1015.8 |
| 20260902103337 | 49 | 68 | 1.0 | 4.0 | 0.00 | 0.00 | 0.00 | 99 | 1015.8 |
| 20260902102827 | 49 | 23 | 1.0 | 6.0 | 0.00 | 0.00 | 0.00 | 99 | 1015.7 |
| 20260902102318 | 49 | 203 | 2.0 | 6.0 | 0.00 | 0.00 | 0.00 | 99 | 1015.7 |
| 20260902101808 | 49 | 68 | 2.0 | 6.0 | 0.00 | 0.00 | 0.00 | 99 | 1015.4 |
| 20260902101257 | 49 | 135 | 3.0 | 6.0 | 0.00 | 0.00 | 0.00 | 99 | 1015.4 |
| 20260902100747 | 49 | 90 | 2.0 | 6.0 | 0.00 | 0.00 | 0.00 | 99 | 1015.2 |
| 20260902100237 | 49 | 270 | 0.0 | 4.0 | 0.00 | 0.00 | 0.00 | 99 | 1014.8 |
| 20260902095726 | 49 | 90 | 2.0 | 4.0 | 0.00 | 0.00 | 0.00 | 99 | 1015.2 |
| 20260902095217 | 49 | 135 | 1.0 | 4.0 | 0.00 | 0.00 | 0.00 | 99 | 1015.3 |
| 20260902094716 | 49 | 45 | 2.0 | 4.0 | 0.00 | 0.00 | 0.00 | 99 | 1015.2 |
| 20260902093646 | 49 | 248 | 1.0 | 4.0 | 0.00 | 0.00 | 0.00 | 99 | 1015.3 |
| 20260902093136 | 49 | 113 | 0.0 | 4.0 | 0.00 | 0.00 | 0.00 | 99 | 1015.4 |
| 20260902092626 | 49 | 90 | 1.0 | 4.0 | 0.00 | 0.00 | 0.00 | 99 | 1015.1 |
| 20260902092115 | 49 | 23 | 0.0 | 2.0 | 0.00 | 0.00 | 0.00 | 99 | 1015.3 |
| 20260902091610 | 49 | 90 | 0.0 | 4.0 | 0.00 | 0.00 | 0.00 | 99 | 1015.5 |
| 20260902091057 | 49 | 90 | 1.0 | 4.0 | 0.00 | 0.00 | 0.00 | 99 | 1015.6 |
| 20260902090545 | 49 | 68 | 1.0 | 4.0 | 0.00 | 0.00 | 0.00 | 99 | 1015.8 |
| 20260902090035 | 49 | 68 | 0.0 | 4.0 | 0.00 | 0.00 | 0.00 | 99 | 1015.6 |
| 20260902085525 | 49 | 45 | 2.0 | 4.0 | 0.00 | 0.00 | 0.00 | 99 | 1015.8 |
| 20260902085015 | 49 | 68 | 1.0 | 4.0 | 0.00 | 0.00 | 0.00 | 99 | 1015.6 |
| 20260902084504 | 49 | 68 | 1.0 | 4.0 | 0.00 | 0.00 | 0.00 | 99 | 1015.6 |
| 20260902083956 | 49 | 23 | 1.0 | 6.0 | 0.00 | 0.00 | 0.00 | 99 | 1015.7 |
| 20260902083444 | 49 | 90 | 2.0 | 6.0 | 0.00 | 0.00 | 0.00 | 99 | 1015.7 |
| 20260902082934 | 50 | 45 | 2.0 | 4.0 | 0.00 | 0.00 | 0.00 | 99 | 1015.7 |
| 20260902081914 | 50 | 113 | 1.0 | 4.0 | 0.00 | 0.00 | 0.00 | 99 | 1015.7 |
| 20260902081403 | 50 | 338 | 1.0 | 4.0 | 0.00 | 0.00 | 0.00 | 99 | 1015.6 |
| 20260902080343 | 49 | 23 | 2.0 | 4.0 | 0.00 | 0.00 | 0.00 | 99 | 1015.7 |
| 20260902075833 | 49 | 90 | 2.0 | 4.0 | 0.00 | 0.00 | 0.00 | 99 | 1015.6 |
| 20260902075323 | 49 | 90 | 2.0 | 4.0 | 0.00 | 0.00 | 0.00 | 99 | 1015.7 |
| 20260902074813 | 49 | 338 | 2.0 | 4.0 | 0.00 | 0.00 | 0.00 | 99 | 1016.0 |
| 20260902074303 | 48 | 45 | 2.0 | 4.0 | 0.00 | 0.00 | 0.00 | 99 | 1015.7 |
| 20260902073753 | 48 | 90 | 2.0 | 4.0 | 0.00 | 0.00 | 0.00 | 99 | 1015.7 |
| 20260902072733 | 48 | 68 | 0.0 | 2.0 | 0.00 | 0.00 | 0.00 | 99 | 1015.8 |
| 20260902072222 | 48 | 23 | 1.0 | 2.0 | 0.00 | 0.00 | 0.00 | 99 | 1015.7 |
| 20260902071202 | 48 | 270 | 1.0 | 2.0 | 0.00 | 0.00 | 0.00 | 99 | 1015.9 |
| 20260902070652 | 48 | 113 | 1.0 | 2.0 | 0.00 | 0.00 | 0.00 | 99 | 1015.9 |
| 20260902070142 | 48 | 135 | 1.0 | 4.0 | 0.00 | 0.00 | 0.00 | 99 | 1016.1 |
| 20260902065631 | 48 | 135 | 1.0 | 4.0 | 0.00 | 0.00 | 0.00 | 99 | 1016.0 |
| 20260902065121 | 48 | 68 | 1.0 | 2.0 | 0.00 | 0.00 | 0.00 | 99 | 1016.1 |
| 20260902064611 | 48 | 45 | 0.0 | 2.0 | 0.00 | 0.00 | 0.00 | 99 | 1016.3 |
| 20260902064101 | 47 | 68 | 1.0 | 2.0 | 0.00 | 0.00 | 0.00 | 99 | 1016.5 |
| 20260902063550 | 47 | 68 | 0.0 | 2.0 | 0.00 | 0.00 | 0.00 | 99 | 1016.5 |
| 20260902063042 | 47 | 68 | 0.0 | 4.0 | 0.00 | 0.00 | 0.00 | 99 | 1016.6 |
| 20260902062530 | 48 | 45 | 1.0 | 4.0 | 0.00 | 0.00 | 0.00 | 99 | 1017.0 |
| 20260902062020 | 48 | 45 | 1.0 | 4.0 | 0.00 | 0.00 | 0.00 | 99 | 1016.9 |
| 20260902061513 | 48 | 113 | 2.0 | 4.0 | 0.00 | 0.00 | 0.00 | 99 | 1017.0 |
| 20260902060452 | 48 | 45 | 2.0 | 4.0 | 0.00 | 0.00 | 0.00 | 99 | 1017.0 |
| 20260902055430 | 49 | 23 | 0.0 | 2.0 | 0.00 | 0.00 | 0.00 | 99 | 1017.1 |
| 20260902054919 | 49 | 68 | 1.0 | 2.0 | 0.00 | 0.00 | 0.00 | 99 | 1017.2 |
| 20260902054409 | 49 | 23 | 1.0 | 2.0 | 0.00 | 0.00 | 0.00 | 99 | 1017.3 |
| 20260902053900 | 49 | 68 | 1.0 | 2.0 | 0.00 | 0.00 | 0.00 | 99 | 1017.5 |